sensor_id;sensor_type;location;lat;lon;timestamp;pressure;altitude;pressure_sealevel;temperature;humidity
9141;BME280;46330;50.822;7.126;2023-08-21T00:01:53;101519.38;;;20.97;100.00
9141;BME280;46330;50.822;7.126;2023-08-21T00:04:20;101517.31;;;21.02;100.00
9141;BME280;46330;50.822;7.126;2023-08-21T00:06:48;101510.88;;;21.08;100.00
9141;BME280;46330;50.822;7.126;2023-08-21T00:09:18;101515.47;;;21.04;100.00
9141;BME280;46330;50.822;7.126;2023-08-21T00:11:46;101513.13;;;20.98;100.00
9141;BME280;46330;50.822;7.126;2023-08-21T00:14:14;101507.78;;;20.98;100.00
9141;BME280;46330;50.822;7.126;2023-08-21T00:16:41;101511.44;;;20.96;100.00
9141;BME280;46330;50.822;7.126;2023-08-21T00:19:09;101501.09;;;20.89;100.00
9141;BME280;46330;50.822;7.126;2023-08-21T00:21:37;101508.16;;;20.90;100.00
9141;BME280;46330;50.822;7.126;2023-08-21T00:24:05;101508.78;;;20.96;100.00
9141;BME280;46330;50.822;7.126;2023-08-21T00:26:34;101501.09;;;20.89;100.00
9141;BME280;46330;50.822;7.126;2023-08-21T00:29:02;101497.75;;;20.86;100.00
9141;BME280;46330;50.822;7.126;2023-08-21T00:31:31;101497.59;;;20.89;100.00
9141;BME280;46330;50.822;7.126;2023-08-21T00:33:59;101494.78;;;20.92;100.00
9141;BME280;46330;50.822;7.126;2023-08-21T00:36:27;101494.69;;;20.93;100.00
9141;BME280;46330;50.822;7.126;2023-08-21T00:38:54;101490.25;;;20.94;100.00
9141;BME280;46330;50.822;7.126;2023-08-21T00:41:22;101493.84;;;20.93;100.00
9141;BME280;46330;50.822;7.126;2023-08-21T00:43:51;101491.31;;;20.90;100.00
9141;BME280;46330;50.822;7.126;2023-08-21T00:46:19;101495.09;;;20.86;100.00
9141;BME280;46330;50.822;7.126;2023-08-21T00:48:47;101486.41;;;20.82;100.00
9141;BME280;46330;50.822;7.126;2023-08-21T00:51:15;101488.19;;;20.82;100.00
9141;BME280;46330;50.822;7.126;2023-08-21T00:53:44;101485.53;;;20.82;100.00
9141;BME280;46330;50.822;7.126;2023-08-21T00:56:12;101478.63;;;20.78;100.00
9141;BME280;46330;50.822;7.126;2023-08-21T00:58:40;101483.94;;;20.78;100.00
9141;BME280;46330;50.822;7.126;2023-08-21T01:01:10;101484.38;;;20.69;100.00
9141;BME280;46330;50.822;7.126;2023-08-21T01:03:39;101483.38;;;20.53;100.00
9141;BME280;46330;50.822;7.126;2023-08-21T01:06:07;101489.06;;;20.45;100.00
9141;BME280;46330;50.822;7.126;2023-08-21T01:08:46;101497.09;;;20.44;100.00
9141;BME280;46330;50.822;7.126;2023-08-21T01:11:18;101499.03;;;20.40;100.00
9141;BME280;46330;50.822;7.126;2023-08-21T01:13:51;101490.34;;;20.36;100.00
9141;BME280;46330;50.822;7.126;2023-08-21T01:16:23;101493.81;;;20.38;100.00
9141;BME280;46330;50.822;7.126;2023-08-21T01:18:53;101496.38;;;20.40;100.00
9141;BME280;46330;50.822;7.126;2023-08-21T01:21:23;101493.00;;;20.36;100.00
9141;BME280;46330;50.822;7.126;2023-08-21T01:23:53;101504.00;;;20.29;100.00
9141;BME280;46330;50.822;7.126;2023-08-21T01:26:20;101512.22;;;20.23;100.00
9141;BME280;46330;50.822;7.126;2023-08-21T01:28:48;101500.75;;;20.21;100.00
9141;BME280;46330;50.822;7.126;2023-08-21T01:31:18;101507.22;;;20.15;100.00
9141;BME280;46330;50.822;7.126;2023-08-21T01:33:50;101517.06;;;20.13;100.00
9141;BME280;46330;50.822;7.126;2023-08-21T01:36:18;101510.75;;;20.16;100.00
9141;BME280;46330;50.822;7.126;2023-08-21T01:38:47;101509.00;;;20.15;100.00
9141;BME280;46330;50.822;7.126;2023-08-21T01:41:16;101515.41;;;20.11;100.00
9141;BME280;46330;50.822;7.126;2023-08-21T01:43:44;101499.53;;;20.09;100.00
9141;BME280;46330;50.822;7.126;2023-08-21T01:46:12;101502.13;;;20.11;100.00
9141;BME280;46330;50.822;7.126;2023-08-21T01:48:40;101501.31;;;20.09;100.00
9141;BME280;46330;50.822;7.126;2023-08-21T01:51:07;101501.19;;;20.12;100.00
9141;BME280;46330;50.822;7.126;2023-08-21T01:53:35;101498.63;;;20.10;100.00
9141;BME280;46330;50.822;7.126;2023-08-21T01:56:03;101496.81;;;20.11;100.00
9141;BME280;46330;50.822;7.126;2023-08-21T01:58:33;101493.16;;;20.13;100.00
9141;BME280;46330;50.822;7.126;2023-08-21T02:01:01;101506.84;;;20.04;100.00
9141;BME280;46330;50.822;7.126;2023-08-21T02:03:30;101503.75;;;19.95;100.00
9141;BME280;46330;50.822;7.126;2023-08-21T02:05:58;101503.75;;;19.95;100.00
9141;BME280;46330;50.822;7.126;2023-08-21T02:08:27;101506.19;;;19.99;100.00
9141;BME280;46330;50.822;7.126;2023-08-21T02:10:57;101500.72;;;20.02;100.00
9141;BME280;46330;50.822;7.126;2023-08-21T02:13:25;101497.16;;;20.03;100.00
9141;BME280;46330;50.822;7.126;2023-08-21T02:15:55;101497.16;;;20.03;100.00
9141;BME280;46330;50.822;7.126;2023-08-21T02:18:22;101496.91;;;19.89;100.00
9141;BME280;46330;50.822;7.126;2023-08-21T02:20:50;101498.88;;;19.84;100.00
9141;BME280;46330;50.822;7.126;2023-08-21T02:23:18;101498.09;;;19.82;100.00
9141;BME280;46330;50.822;7.126;2023-08-21T02:25:46;101493.72;;;19.81;100.00
9141;BME280;46330;50.822;7.126;2023-08-21T02:28:15;101502.41;;;19.84;100.00
9141;BME280;46330;50.822;7.126;2023-08-21T02:30:43;101503.34;;;19.83;100.00
9141;BME280;46330;50.822;7.126;2023-08-21T02:33:12;101507.72;;;19.84;100.00
9141;BME280;46330;50.822;7.126;2023-08-21T02:35:40;101503.19;;;19.86;100.00
9141;BME280;46330;50.822;7.126;2023-08-21T02:38:08;101497.88;;;19.86;100.00
9141;BME280;46330;50.822;7.126;2023-08-21T02:40:36;101494.53;;;19.83;100.00
9141;BME280;46330;50.822;7.126;2023-08-21T02:43:04;101510.66;;;19.78;100.00
9141;BME280;46330;50.822;7.126;2023-08-21T02:45:31;101503.69;;;19.76;100.00
9141;BME280;46330;50.822;7.126;2023-08-21T02:47:59;101510.00;;;19.73;100.00
9141;BME280;46330;50.822;7.126;2023-08-21T02:50:29;101503.41;;;19.62;100.00
9141;BME280;46330;50.822;7.126;2023-08-21T02:52:56;101507.91;;;19.60;100.00
9141;BME280;46330;50.822;7.126;2023-08-21T02:55:24;101505.53;;;19.54;100.00
9141;BME280;46330;50.822;7.126;2023-08-21T02:57:52;101501.53;;;19.44;100.00
9141;BME280;46330;50.822;7.126;2023-08-21T03:00:20;101505.25;;;19.40;100.00
9141;BME280;46330;50.822;7.126;2023-08-21T03:02:48;101500.63;;;19.45;100.00
9141;BME280;46330;50.822;7.126;2023-08-21T03:05:16;101508.50;;;19.46;100.00
9141;BME280;46330;50.822;7.126;2023-08-21T03:07:45;101512.84;;;19.49;100.00
9141;BME280;46330;50.822;7.126;2023-08-21T03:10:13;101498.56;;;19.51;100.00
9141;BME280;46330;50.822;7.126;2023-08-21T03:12:41;101500.28;;;19.52;100.00
9141;BME280;46330;50.822;7.126;2023-08-21T03:15:10;101507.25;;;19.55;100.00
9141;BME280;46330;50.822;7.126;2023-08-21T03:17:37;101509.09;;;19.53;100.00
9141;BME280;46330;50.822;7.126;2023-08-21T03:20:06;101500.13;;;19.55;100.00
9141;BME280;46330;50.822;7.126;2023-08-21T03:22:34;101507.19;;;19.56;100.00
9141;BME280;46330;50.822;7.126;2023-08-21T03:25:04;101510.75;;;19.55;100.00
9141;BME280;46330;50.822;7.126;2023-08-21T03:27:32;101509.97;;;19.53;100.00
9141;BME280;46330;50.822;7.126;2023-08-21T03:30:00;101510.88;;;19.52;100.00
9141;BME280;46330;50.822;7.126;2023-08-21T03:32:28;101505.72;;;19.49;100.00
9141;BME280;46330;50.822;7.126;2023-08-21T03:34:56;101501.47;;;19.45;100.00
9141;BME280;46330;50.822;7.126;2023-08-21T03:37:24;101494.66;;;19.38;100.00
9141;BME280;46330;50.822;7.126;2023-08-21T03:39:52;101494.13;;;19.30;100.00
9141;BME280;46330;50.822;7.126;2023-08-21T03:42:21;101500.84;;;19.39;100.00
9141;BME280;46330;50.822;7.126;2023-08-21T03:44:49;101503.53;;;19.37;100.00
9141;BME280;46330;50.822;7.126;2023-08-21T03:47:16;101501.16;;;19.31;100.00
9141;BME280;46330;50.822;7.126;2023-08-21T03:49:59;101509.06;;;19.32;100.00
9141;BME280;46330;50.822;7.126;2023-08-21T03:52:27;101506.28;;;19.36;100.00
9141;BME280;46330;50.822;7.126;2023-08-21T03:54:55;101496.53;;;19.36;100.00
9141;BME280;46330;50.822;7.126;2023-08-21T03:57:24;101498.63;;;19.28;100.00
9141;BME280;46330;50.822;7.126;2023-08-21T03:59:52;101489.50;;;19.13;100.00
9141;BME280;46330;50.822;7.126;2023-08-21T04:02:19;101493.09;;;19.12;100.00
9141;BME280;46330;50.822;7.126;2023-08-21T04:04:50;101493.41;;;19.05;100.00
9141;BME280;46330;50.822;7.126;2023-08-21T04:07:18;101490.81;;;19.03;100.00
9141;BME280;46330;50.822;7.126;2023-08-21T04:09:46;101489.28;;;18.98;100.00
9141;BME280;46330;50.822;7.126;2023-08-21T04:12:14;101492.91;;;18.95;100.00
9141;BME280;46330;50.822;7.126;2023-08-21T04:14:43;101494.50;;;18.99;100.00
9141;BME280;46330;50.822;7.126;2023-08-21T04:17:11;101498.03;;;19.00;100.00
9141;BME280;46330;50.822;7.126;2023-08-21T04:19:38;101491.66;;;19.04;100.00
9141;BME280;46330;50.822;7.126;2023-08-21T04:22:07;101496.94;;;19.05;100.00
9141;BME280;46330;50.822;7.126;2023-08-21T04:24:35;101499.59;;;19.05;100.00
9141;BME280;46330;50.822;7.126;2023-08-21T04:27:02;101496.22;;;19.00;100.00
9141;BME280;46330;50.822;7.126;2023-08-21T04:29:30;101500.78;;;18.97;100.00
9141;BME280;46330;50.822;7.126;2023-08-21T04:31:59;101496.97;;;19.04;100.00
9141;BME280;46330;50.822;7.126;2023-08-21T04:34:27;101498.50;;;19.09;100.00
9141;BME280;46330;50.822;7.126;2023-08-21T04:36:55;101508.25;;;19.09;100.00
9141;BME280;46330;50.822;7.126;2023-08-21T04:39:23;101513.69;;;19.06;100.00
9141;BME280;46330;50.822;7.126;2023-08-21T04:41:52;101517.19;;;19.06;100.00
9141;BME280;46330;50.822;7.126;2023-08-21T04:44:21;101511.84;;;19.08;100.00
9141;BME280;46330;50.822;7.126;2023-08-21T04:46:49;101513.56;;;19.09;100.00
9141;BME280;46330;50.822;7.126;2023-08-21T04:49:19;101510.06;;;19.08;100.00
9141;BME280;46330;50.822;7.126;2023-08-21T04:51:46;101507.28;;;19.11;100.00
9141;BME280;46330;50.822;7.126;2023-08-21T04:54:14;101509.38;;;19.03;100.00
9141;BME280;46330;50.822;7.126;2023-08-21T04:56:42;101513.69;;;19.06;100.00
9141;BME280;46330;50.822;7.126;2023-08-21T04:59:12;101519.47;;;19.15;100.00
9141;BME280;46330;50.822;7.126;2023-08-21T05:01:40;101513.88;;;19.23;100.00
9141;BME280;46330;50.822;7.126;2023-08-21T05:04:12;101518.19;;;19.25;100.00
9141;BME280;46330;50.822;7.126;2023-08-21T05:06:43;101522.81;;;19.20;100.00
9141;BME280;46330;50.822;7.126;2023-08-21T05:09:11;101527.13;;;19.23;100.00
9141;BME280;46330;50.822;7.126;2023-08-21T05:11:39;101519.72;;;19.31;100.00
9141;BME280;46330;50.822;7.126;2023-08-21T05:14:06;101519.09;;;19.24;100.00
9141;BME280;46330;50.822;7.126;2023-08-21T05:16:34;101525.09;;;19.29;100.00
9141;BME280;46330;50.822;7.126;2023-08-21T05:19:03;101523.19;;;19.55;100.00
9141;BME280;46330;50.822;7.126;2023-08-21T05:21:31;101528.22;;;19.81;100.00
9141;BME280;46330;50.822;7.126;2023-08-21T05:24:00;101520.41;;;19.98;100.00
9141;BME280;46330;50.822;7.126;2023-08-21T05:26:31;101526.22;;;20.06;100.00
9141;BME280;46330;50.822;7.126;2023-08-21T05:28:58;101528.19;;;20.21;100.00
9141;BME280;46330;50.822;7.126;2023-08-21T05:31:26;101533.66;;;20.18;100.00
9141;BME280;46330;50.822;7.126;2023-08-21T05:33:54;101531.31;;;20.51;100.00
9141;BME280;46330;50.822;7.126;2023-08-21T05:36:22;101534.47;;;20.78;100.00
9141;BME280;46330;50.822;7.126;2023-08-21T05:38:50;101538.56;;;20.85;100.00
9141;BME280;46330;50.822;7.126;2023-08-21T05:41:20;101541.72;;;21.12;100.00
9141;BME280;46330;50.822;7.126;2023-08-21T05:43:48;101547.28;;;20.88;100.00
9141;BME280;46330;50.822;7.126;2023-08-21T05:46:16;101536.81;;;21.03;100.00
9141;BME280;46330;50.822;7.126;2023-08-21T05:48:44;101547.72;;;21.17;100.00
9141;BME280;46330;50.822;7.126;2023-08-21T05:51:11;101544.56;;;21.44;97.96
9141;BME280;46330;50.822;7.126;2023-08-21T05:53:39;101544.16;;;21.86;95.49
9141;BME280;46330;50.822;7.126;2023-08-21T05:56:07;101537.75;;;22.08;94.61
9141;BME280;46330;50.822;7.126;2023-08-21T05:58:36;101545.75;;;22.40;92.74
9141;BME280;46330;50.822;7.126;2023-08-21T06:01:06;101545.28;;;22.32;92.55
9141;BME280;46330;50.822;7.126;2023-08-21T06:03:34;101544.13;;;22.71;90.13
9141;BME280;46330;50.822;7.126;2023-08-21T06:06:31;101549.81;;;22.96;88.78
9141;BME280;46330;50.822;7.126;2023-08-21T06:09:00;101553.75;;;23.36;86.89
9141;BME280;46330;50.822;7.126;2023-08-21T06:11:28;101556.31;;;23.83;84.81
9141;BME280;46330;50.822;7.126;2023-08-21T06:13:57;101556.06;;;23.58;84.51
9141;BME280;46330;50.822;7.126;2023-08-21T06:16:25;101559.72;;;23.41;86.00
9141;BME280;46330;50.822;7.126;2023-08-21T06:18:53;101554.72;;;23.35;87.15
9141;BME280;46330;50.822;7.126;2023-08-21T06:21:21;101552.47;;;23.73;85.55
9141;BME280;46330;50.822;7.126;2023-08-21T06:23:48;101557.50;;;24.07;83.17
9141;BME280;46330;50.822;7.126;2023-08-21T06:26:16;101565.56;;;23.77;83.96
9141;BME280;46330;50.822;7.126;2023-08-21T06:28:44;101568.19;;;23.93;84.10
9141;BME280;46330;50.822;7.126;2023-08-21T06:31:14;101561.41;;;24.31;82.64
9141;BME280;46330;50.822;7.126;2023-08-21T06:33:42;101571.81;;;24.36;80.88
9141;BME280;46330;50.822;7.126;2023-08-21T06:36:10;101575.63;;;24.60;80.89
9141;BME280;46330;50.822;7.126;2023-08-21T06:38:38;101584.69;;;24.15;81.54
9141;BME280;46330;50.822;7.126;2023-08-21T06:41:06;101576.50;;;24.32;82.03
9141;BME280;46330;50.822;7.126;2023-08-21T06:43:38;101577.47;;;24.74;80.22
9141;BME280;46330;50.822;7.126;2023-08-21T06:46:11;101588.09;;;24.89;79.20
9141;BME280;46330;50.822;7.126;2023-08-21T06:48:42;101580.28;;;25.13;77.19
9141;BME280;46330;50.822;7.126;2023-08-21T06:51:10;101585.47;;;25.43;75.65
9141;BME280;46330;50.822;7.126;2023-08-21T06:53:41;101577.53;;;25.68;74.28
9141;BME280;46330;50.822;7.126;2023-08-21T06:56:09;101587.31;;;26.21;71.56
9141;BME280;46330;50.822;7.126;2023-08-21T06:58:37;101585.25;;;26.50;70.43
9141;BME280;46330;50.822;7.126;2023-08-21T07:01:05;101588.06;;;26.73;69.76
9141;BME280;46330;50.822;7.126;2023-08-21T07:03:32;101575.25;;;26.77;69.64
9141;BME280;46330;50.822;7.126;2023-08-21T07:06:01;101585.78;;;27.29;67.18
9141;BME280;46330;50.822;7.126;2023-08-21T07:08:29;101577.84;;;26.91;67.09
9141;BME280;46330;50.822;7.126;2023-08-21T07:10:57;101582.31;;;27.03;66.81
9141;BME280;46330;50.822;7.126;2023-08-21T07:13:25;101583.81;;;27.31;65.90
9141;BME280;46330;50.822;7.126;2023-08-21T07:15:53;101590.91;;;27.45;65.21
9141;BME280;46330;50.822;7.126;2023-08-21T07:18:22;101581.03;;;27.80;64.17
9141;BME280;46330;50.822;7.126;2023-08-21T07:20:51;101579.59;;;28.55;61.30
9141;BME280;46330;50.822;7.126;2023-08-21T07:23:20;101589.34;;;28.80;59.93
9141;BME280;46330;50.822;7.126;2023-08-21T07:25:48;101580.44;;;29.22;57.83
9141;BME280;46330;50.822;7.126;2023-08-21T07:28:16;101577.22;;;29.40;59.38
9141;BME280;46330;50.822;7.126;2023-08-21T07:30:44;101586.59;;;29.13;57.14
9141;BME280;46330;50.822;7.126;2023-08-21T07:33:12;101587.59;;;29.01;58.68
9141;BME280;46330;50.822;7.126;2023-08-21T07:35:40;101586.34;;;29.16;58.04
9141;BME280;46330;50.822;7.126;2023-08-21T07:38:08;101587.31;;;29.58;58.41
9141;BME280;46330;50.822;7.126;2023-08-21T07:40:37;101588.97;;;29.70;54.81
9141;BME280;46330;50.822;7.126;2023-08-21T07:43:05;101588.25;;;30.21;53.51
9141;BME280;46330;50.822;7.126;2023-08-21T07:45:32;101576.88;;;30.38;52.63
9141;BME280;46330;50.822;7.126;2023-08-21T07:48:00;101581.22;;;30.29;53.84
9141;BME280;46330;50.822;7.126;2023-08-21T07:50:39;101590.16;;;30.81;52.01
9141;BME280;46330;50.822;7.126;2023-08-21T07:53:07;101596.13;;;31.15;50.19
9141;BME280;46330;50.822;7.126;2023-08-21T07:55:37;101593.53;;;31.72;50.28
9141;BME280;46330;50.822;7.126;2023-08-21T07:58:04;101593.97;;;31.09;49.58
9141;BME280;46330;50.822;7.126;2023-08-21T08:00:32;101602.09;;;30.27;52.99
9141;BME280;46330;50.822;7.126;2023-08-21T08:03:00;101592.09;;;30.39;53.75
9141;BME280;46330;50.822;7.126;2023-08-21T08:05:28;101593.03;;;31.48;49.16
9141;BME280;46330;50.822;7.126;2023-08-21T08:07:59;101590.19;;;31.30;50.00
9141;BME280;46330;50.822;7.126;2023-08-21T08:10:26;101592.59;;;31.33;50.09
9141;BME280;46330;50.822;7.126;2023-08-21T08:12:56;101592.34;;;31.46;49.69
9141;BME280;46330;50.822;7.126;2023-08-21T08:15:23;101590.72;;;30.75;50.73
9141;BME280;46330;50.822;7.126;2023-08-21T08:17:53;101591.59;;;30.85;50.17
9141;BME280;46330;50.822;7.126;2023-08-21T08:20:21;101595.69;;;31.10;49.03
9141;BME280;46330;50.822;7.126;2023-08-21T08:22:49;101594.22;;;30.96;50.38
9141;BME280;46330;50.822;7.126;2023-08-21T08:25:17;101597.91;;;31.44;49.16
9141;BME280;46330;50.822;7.126;2023-08-21T08:27:45;101598.22;;;31.80;47.70
9141;BME280;46330;50.822;7.126;2023-08-21T08:30:14;101602.66;;;32.10;47.41
9141;BME280;46330;50.822;7.126;2023-08-21T08:32:42;101602.94;;;32.99;44.70
9141;BME280;46330;50.822;7.126;2023-08-21T08:35:13;101598.84;;;32.49;45.11
9141;BME280;46330;50.822;7.126;2023-08-21T08:37:40;101602.34;;;31.84;46.92
9141;BME280;46330;50.822;7.126;2023-08-21T08:40:09;101594.16;;;31.36;49.39
9141;BME280;46330;50.822;7.126;2023-08-21T08:42:37;101597.91;;;31.83;47.29
9141;BME280;46330;50.822;7.126;2023-08-21T08:45:06;101600.25;;;32.90;46.34
9141;BME280;46330;50.822;7.126;2023-08-21T08:47:35;101595.13;;;32.50;46.26
9141;BME280;46330;50.822;7.126;2023-08-21T08:50:06;101602.25;;;32.41;45.51
9141;BME280;46330;50.822;7.126;2023-08-21T08:52:35;101598.31;;;31.40;48.02
9141;BME280;46330;50.822;7.126;2023-08-21T08:55:03;101594.50;;;32.00;46.38
9141;BME280;46330;50.822;7.126;2023-08-21T08:57:33;101597.50;;;31.87;47.21
9141;BME280;46330;50.822;7.126;2023-08-21T09:00:01;101587.50;;;32.73;44.68
9141;BME280;46330;50.822;7.126;2023-08-21T09:02:32;101591.75;;;33.12;44.53
9141;BME280;46330;50.822;7.126;2023-08-21T09:05:01;101592.72;;;32.84;44.66
9141;BME280;46330;50.822;7.126;2023-08-21T09:07:30;101583.75;;;32.83;44.60
9141;BME280;46330;50.822;7.126;2023-08-21T09:09:58;101591.63;;;34.02;41.92
9141;BME280;46330;50.822;7.126;2023-08-21T09:12:26;101593.66;;;34.18;41.76
9141;BME280;46330;50.822;7.126;2023-08-21T09:14:54;101599.81;;;34.79;41.11
9141;BME280;46330;50.822;7.126;2023-08-21T09:17:22;101598.47;;;33.88;42.50
9141;BME280;46330;50.822;7.126;2023-08-21T09:19:50;101591.28;;;33.97;42.66
9141;BME280;46330;50.822;7.126;2023-08-21T09:22:19;101589.78;;;34.02;42.55
9141;BME280;46330;50.822;7.126;2023-08-21T09:27:33;101598.38;;;33.45;42.79
9141;BME280;46330;50.822;7.126;2023-08-21T09:30:03;101596.25;;;33.21;44.38
9141;BME280;46330;50.822;7.126;2023-08-21T09:32:31;101595.22;;;34.28;42.63
9141;BME280;46330;50.822;7.126;2023-08-21T09:35:19;101589.44;;;34.49;41.10
9141;BME280;46330;50.822;7.126;2023-08-21T09:37:48;101587.53;;;34.75;41.16
9141;BME280;46330;50.822;7.126;2023-08-21T09:40:16;101593.75;;;33.10;44.29
9141;BME280;46330;50.822;7.126;2023-08-21T09:42:43;101592.53;;;33.22;44.74
9141;BME280;46330;50.822;7.126;2023-08-21T09:45:11;101596.56;;;33.18;43.29
9141;BME280;46330;50.822;7.126;2023-08-21T09:47:39;101591.13;;;33.63;42.71
9141;BME280;46330;50.822;7.126;2023-08-21T09:50:08;101595.28;;;33.75;43.97
9141;BME280;46330;50.822;7.126;2023-08-21T09:52:36;101593.69;;;34.26;41.32
9141;BME280;46330;50.822;7.126;2023-08-21T09:55:05;101588.13;;;33.21;44.09
9141;BME280;46330;50.822;7.126;2023-08-21T09:57:34;101590.88;;;33.92;43.17
9141;BME280;46330;50.822;7.126;2023-08-21T10:00:03;101594.38;;;33.84;42.51
9141;BME280;46330;50.822;7.126;2023-08-21T10:02:42;101593.53;;;34.53;40.81
9141;BME280;46330;50.822;7.126;2023-08-21T10:05:12;101596.53;;;34.68;41.22
9141;BME280;46330;50.822;7.126;2023-08-21T10:07:41;101588.19;;;34.69;41.00
9141;BME280;46330;50.822;7.126;2023-08-21T10:10:11;101584.44;;;35.04;39.61
9141;BME280;46330;50.822;7.126;2023-08-21T10:12:39;101577.34;;;35.11;39.16
9141;BME280;46330;50.822;7.126;2023-08-21T10:15:07;101578.34;;;35.76;37.44
9141;BME280;46330;50.822;7.126;2023-08-21T10:17:35;101575.53;;;34.52;40.32
9141;BME280;46330;50.822;7.126;2023-08-21T10:20:04;101576.81;;;35.90;37.72
9141;BME280;46330;50.822;7.126;2023-08-21T10:22:38;101573.63;;;34.78;41.30
9141;BME280;46330;50.822;7.126;2023-08-21T10:25:15;101565.00;;;34.05;39.97
9141;BME280;46330;50.822;7.126;2023-08-21T10:27:43;101567.94;;;33.69;42.33
9141;BME280;46330;50.822;7.126;2023-08-21T10:30:13;101562.25;;;33.27;42.84
9141;BME280;46330;50.822;7.126;2023-08-21T10:32:45;101559.22;;;33.47;42.45
9141;BME280;46330;50.822;7.126;2023-08-21T10:35:17;101565.25;;;33.41;42.97
9141;BME280;46330;50.822;7.126;2023-08-21T10:40:29;101563.69;;;35.03;39.19
9141;BME280;46330;50.822;7.126;2023-08-21T10:42:57;101564.31;;;34.21;39.69
9141;BME280;46330;50.822;7.126;2023-08-21T10:45:25;101558.94;;;35.05;38.08
9141;BME280;46330;50.822;7.126;2023-08-21T10:47:53;101564.91;;;34.41;39.97
9141;BME280;46330;50.822;7.126;2023-08-21T10:50:23;101562.63;;;34.88;40.22
9141;BME280;46330;50.822;7.126;2023-08-21T10:52:51;101563.66;;;35.93;37.69
9141;BME280;46330;50.822;7.126;2023-08-21T10:55:20;101549.81;;;35.14;39.46
9141;BME280;46330;50.822;7.126;2023-08-21T11:00:39;101557.63;;;35.09;38.19
9141;BME280;46330;50.822;7.126;2023-08-21T11:03:09;101555.72;;;34.34;41.45
9141;BME280;46330;50.822;7.126;2023-08-21T11:05:36;101551.72;;;34.80;39.28
9141;BME280;46330;50.822;7.126;2023-08-21T11:08:04;101558.75;;;34.90;39.30
9141;BME280;46330;50.822;7.126;2023-08-21T11:10:32;101549.88;;;35.63;37.57
9141;BME280;46330;50.822;7.126;2023-08-21T11:13:00;101542.25;;;35.82;37.69
9141;BME280;46330;50.822;7.126;2023-08-21T11:15:29;101545.81;;;35.00;39.02
9141;BME280;46330;50.822;7.126;2023-08-21T11:17:58;101547.66;;;34.84;40.09
9141;BME280;46330;50.822;7.126;2023-08-21T11:20:28;101555.16;;;34.98;39.03
9141;BME280;46330;50.822;7.126;2023-08-21T11:22:56;101556.69;;;35.91;38.12
9141;BME280;46330;50.822;7.126;2023-08-21T11:25:24;101553.63;;;35.94;37.22
9141;BME280;46330;50.822;7.126;2023-08-21T11:27:52;101554.84;;;35.01;39.10
9141;BME280;46330;50.822;7.126;2023-08-21T11:30:21;101557.41;;;34.61;39.29
9141;BME280;46330;50.822;7.126;2023-08-21T11:32:49;101556.81;;;34.49;39.97
9141;BME280;46330;50.822;7.126;2023-08-21T11:35:33;101556.88;;;33.62;41.98
9141;BME280;46330;50.822;7.126;2023-08-21T11:38:00;101552.69;;;35.13;40.05
9141;BME280;46330;50.822;7.126;2023-08-21T11:40:28;101558.75;;;35.89;38.14
9141;BME280;46330;50.822;7.126;2023-08-21T11:42:59;101550.22;;;34.26;40.25
9141;BME280;46330;50.822;7.126;2023-08-21T11:45:28;101550.00;;;33.40;41.67
9141;BME280;46330;50.822;7.126;2023-08-21T11:47:56;101548.97;;;33.94;40.38
9141;BME280;46330;50.822;7.126;2023-08-21T11:50:24;101540.22;;;34.26;40.60
9141;BME280;46330;50.822;7.126;2023-08-21T11:52:55;101556.00;;;34.56;40.66
9141;BME280;46330;50.822;7.126;2023-08-21T11:55:23;101550.84;;;34.45;39.95
9141;BME280;46330;50.822;7.126;2023-08-21T11:57:51;101551.94;;;33.30;41.10
9141;BME280;46330;50.822;7.126;2023-08-21T12:00:25;101548.81;;;33.96;39.84
9141;BME280;46330;50.822;7.126;2023-08-21T12:02:56;101548.66;;;34.15;39.61
9141;BME280;46330;50.822;7.126;2023-08-21T12:05:24;101545.78;;;34.50;38.45
9141;BME280;46330;50.822;7.126;2023-08-21T12:07:52;101550.72;;;33.78;40.74
9141;BME280;46330;50.822;7.126;2023-08-21T12:10:25;101544.09;;;34.83;38.74
9141;BME280;46330;50.822;7.126;2023-08-21T12:12:53;101550.44;;;33.53;40.77
9141;BME280;46330;50.822;7.126;2023-08-21T12:15:21;101549.69;;;33.79;39.28
9141;BME280;46330;50.822;7.126;2023-08-21T12:17:48;101547.97;;;33.42;41.07
9141;BME280;46330;50.822;7.126;2023-08-21T12:20:16;101547.69;;;33.81;41.46
9141;BME280;46330;50.822;7.126;2023-08-21T12:22:44;101545.59;;;33.75;40.47
9141;BME280;46330;50.822;7.126;2023-08-21T12:25:12;101545.78;;;33.11;40.67
9141;BME280;46330;50.822;7.126;2023-08-21T12:27:41;101545.94;;;34.15;38.88
9141;BME280;46330;50.822;7.126;2023-08-21T12:30:12;101545.44;;;34.53;38.51
9141;BME280;46330;50.822;7.126;2023-08-21T12:32:39;101539.78;;;34.13;38.97
9141;BME280;46330;50.822;7.126;2023-08-21T12:35:08;101545.84;;;33.64;40.18
9141;BME280;46330;50.822;7.126;2023-08-21T12:37:38;101542.53;;;32.80;40.68
9141;BME280;46330;50.822;7.126;2023-08-21T12:40:07;101535.53;;;32.13;41.42
9141;BME280;46330;50.822;7.126;2023-08-21T12:42:35;101537.91;;;32.63;41.49
9141;BME280;46330;50.822;7.126;2023-08-21T12:45:04;101526.25;;;32.80;41.77
9141;BME280;46330;50.822;7.126;2023-08-21T12:47:32;101531.09;;;33.31;40.68
9141;BME280;46330;50.822;7.126;2023-08-21T12:50:00;101537.66;;;33.11;40.73
9141;BME280;46330;50.822;7.126;2023-08-21T12:52:30;101535.78;;;33.82;39.25
9141;BME280;46330;50.822;7.126;2023-08-21T12:54:57;101525.69;;;33.92;39.51
9141;BME280;46330;50.822;7.126;2023-08-21T12:57:25;101526.97;;;34.05;38.16
9141;BME280;46330;50.822;7.126;2023-08-21T12:59:53;101529.69;;;33.27;40.49
9141;BME280;46330;50.822;7.126;2023-08-21T13:02:22;101519.41;;;33.66;39.26
9141;BME280;46330;50.822;7.126;2023-08-21T13:04:50;101521.25;;;33.91;39.85
9141;BME280;46330;50.822;7.126;2023-08-21T13:07:18;101518.59;;;32.75;41.42
9141;BME280;46330;50.822;7.126;2023-08-21T13:09:46;101521.72;;;32.07;42.55
9141;BME280;46330;50.822;7.126;2023-08-21T13:12:14;101519.72;;;31.80;42.54